Terminal Aerodrome Forecast
Issued by NWS Amarillo, TX

Home | Current Version | Previous Version | Text Only | Print | Product List | Glossary On
Versions: 1 2 3 4 5 6 7 8 9 10 11 12 13 14 15 16 17
000
FTUS44 KAMA 291100
TAFDHT
TAF
KDHT 291130Z 2912/3012 06010KT P6SM SCT030 BKN120
     FM292300 03010KT 6SM -TSRA OVC040CB
     FM300400 05008KT P6SM SCT020 OVC070=

USA.gov is the U.S. government's official web portal to all federal, state and local government web resources and services.